sensor_id;sensor_type;location;lat;lon;timestamp;P1;durP1;ratioP1;P2;durP2;ratioP2
2326;SDS011;1174;51.588;7.328;2022-07-22T00:01:44;2.77;;;2.30;;
2326;SDS011;1174;51.588;7.328;2022-07-22T00:04:11;3.13;;;2.83;;
2326;SDS011;1174;51.588;7.328;2022-07-22T00:06:38;6.37;;;2.60;;
2326;SDS011;1174;51.588;7.328;2022-07-22T00:09:06;3.07;;;2.17;;
2326;SDS011;1174;51.588;7.328;2022-07-22T00:11:35;2.87;;;2.13;;
2326;SDS011;1174;51.588;7.328;2022-07-22T00:14:02;9.20;;;2.03;;
2326;SDS011;1174;51.588;7.328;2022-07-22T00:16:29;3.73;;;3.40;;
2326;SDS011;1174;51.588;7.328;2022-07-22T00:18:57;3.33;;;2.27;;
2326;SDS011;1174;51.588;7.328;2022-07-22T00:21:24;5.30;;;2.00;;
2326;SDS011;1174;51.588;7.328;2022-07-22T00:23:51;1.80;;;1.50;;
2326;SDS011;1174;51.588;7.328;2022-07-22T00:26:19;1.70;;;1.40;;
2326;SDS011;1174;51.588;7.328;2022-07-22T00:28:47;1.67;;;1.50;;
2326;SDS011;1174;51.588;7.328;2022-07-22T00:31:14;4.57;;;1.80;;
2326;SDS011;1174;51.588;7.328;2022-07-22T00:33:44;1.60;;;1.47;;
2326;SDS011;1174;51.588;7.328;2022-07-22T00:36:11;2.50;;;1.90;;
2326;SDS011;1174;51.588;7.328;2022-07-22T00:38:39;4.70;;;1.73;;
2326;SDS011;1174;51.588;7.328;2022-07-22T00:41:06;4.43;;;1.90;;
2326;SDS011;1174;51.588;7.328;2022-07-22T00:43:50;2.10;;;1.80;;
2326;SDS011;1174;51.588;7.328;2022-07-22T00:46:18;3.13;;;2.20;;
2326;SDS011;1174;51.588;7.328;2022-07-22T00:48:45;2.37;;;2.03;;
2326;SDS011;1174;51.588;7.328;2022-07-22T00:51:12;3.80;;;2.00;;
2326;SDS011;1174;51.588;7.328;2022-07-22T00:53:39;2.97;;;2.47;;
2326;SDS011;1174;51.588;7.328;2022-07-22T00:56:06;5.03;;;2.20;;
2326;SDS011;1174;51.588;7.328;2022-07-22T00:58:33;2.00;;;1.57;;
2326;SDS011;1174;51.588;7.328;2022-07-22T01:01:01;2.67;;;1.90;;
2326;SDS011;1174;51.588;7.328;2022-07-22T01:03:28;2.57;;;2.13;;
2326;SDS011;1174;51.588;7.328;2022-07-22T01:05:55;3.73;;;1.83;;
2326;SDS011;1174;51.588;7.328;2022-07-22T01:08:22;2.70;;;2.10;;
2326;SDS011;1174;51.588;7.328;2022-07-22T01:10:49;2.30;;;2.00;;
2326;SDS011;1174;51.588;7.328;2022-07-22T01:13:16;2.57;;;1.80;;
2326;SDS011;1174;51.588;7.328;2022-07-22T01:15:43;2.77;;;2.13;;
2326;SDS011;1174;51.588;7.328;2022-07-22T01:18:11;2.97;;;1.97;;
2326;SDS011;1174;51.588;7.328;2022-07-22T01:20:39;2.70;;;2.50;;
2326;SDS011;1174;51.588;7.328;2022-07-22T01:23:07;2.90;;;1.80;;
2326;SDS011;1174;51.588;7.328;2022-07-22T01:25:34;2.47;;;2.00;;
2326;SDS011;1174;51.588;7.328;2022-07-22T01:28:01;3.10;;;1.90;;
2326;SDS011;1174;51.588;7.328;2022-07-22T01:30:27;6.80;;;2.50;;
2326;SDS011;1174;51.588;7.328;2022-07-22T01:32:54;2.63;;;2.37;;
2326;SDS011;1174;51.588;7.328;2022-07-22T01:35:21;2.63;;;2.43;;
2326;SDS011;1174;51.588;7.328;2022-07-22T01:37:49;3.03;;;2.33;;
2326;SDS011;1174;51.588;7.328;2022-07-22T01:40:16;2.73;;;2.30;;
2326;SDS011;1174;51.588;7.328;2022-07-22T01:42:43;3.60;;;2.50;;
2326;SDS011;1174;51.588;7.328;2022-07-22T01:45:10;5.03;;;3.50;;
2326;SDS011;1174;51.588;7.328;2022-07-22T01:47:37;8.40;;;4.20;;
2326;SDS011;1174;51.588;7.328;2022-07-22T01:50:04;8.73;;;3.03;;
2326;SDS011;1174;51.588;7.328;2022-07-22T01:52:34;4.40;;;2.50;;
2326;SDS011;1174;51.588;7.328;2022-07-22T01:55:03;3.83;;;2.77;;
2326;SDS011;1174;51.588;7.328;2022-07-22T01:57:31;5.37;;;3.20;;
2326;SDS011;1174;51.588;7.328;2022-07-22T01:59:58;4.60;;;2.80;;
2326;SDS011;1174;51.588;7.328;2022-07-22T02:02:24;4.37;;;2.93;;
2326;SDS011;1174;51.588;7.328;2022-07-22T02:04:51;4.70;;;3.40;;
2326;SDS011;1174;51.588;7.328;2022-07-22T02:07:18;7.00;;;3.90;;
2326;SDS011;1174;51.588;7.328;2022-07-22T02:09:45;3.67;;;2.80;;
2326;SDS011;1174;51.588;7.328;2022-07-22T02:12:13;6.43;;;2.80;;
2326;SDS011;1174;51.588;7.328;2022-07-22T02:14:40;5.47;;;3.63;;
2326;SDS011;1174;51.588;7.328;2022-07-22T02:17:07;4.27;;;2.73;;
2326;SDS011;1174;51.588;7.328;2022-07-22T02:19:34;5.37;;;2.50;;
2326;SDS011;1174;51.588;7.328;2022-07-22T02:22:02;4.40;;;3.40;;
2326;SDS011;1174;51.588;7.328;2022-07-22T02:24:29;2.97;;;2.47;;
2326;SDS011;1174;51.588;7.328;2022-07-22T02:26:56;7.90;;;4.50;;
2326;SDS011;1174;51.588;7.328;2022-07-22T02:29:24;3.40;;;3.10;;
2326;SDS011;1174;51.588;7.328;2022-07-22T02:31:51;7.30;;;3.10;;
2326;SDS011;1174;51.588;7.328;2022-07-22T02:34:17;3.03;;;2.20;;
2326;SDS011;1174;51.588;7.328;2022-07-22T02:36:44;6.03;;;3.50;;
2326;SDS011;1174;51.588;7.328;2022-07-22T02:39:11;3.60;;;3.30;;
2326;SDS011;1174;51.588;7.328;2022-07-22T02:41:38;4.50;;;2.40;;
2326;SDS011;1174;51.588;7.328;2022-07-22T02:44:05;4.17;;;2.70;;
2326;SDS011;1174;51.588;7.328;2022-07-22T02:46:34;5.87;;;3.17;;
2326;SDS011;1174;51.588;7.328;2022-07-22T02:49:01;3.77;;;2.70;;
2326;SDS011;1174;51.588;7.328;2022-07-22T02:51:30;3.77;;;2.60;;
2326;SDS011;1174;51.588;7.328;2022-07-22T02:53:57;3.20;;;2.50;;
2326;SDS011;1174;51.588;7.328;2022-07-22T02:56:25;4.23;;;2.63;;
2326;SDS011;1174;51.588;7.328;2022-07-22T02:58:53;3.27;;;2.20;;
2326;SDS011;1174;51.588;7.328;2022-07-22T03:01:20;2.87;;;1.97;;
2326;SDS011;1174;51.588;7.328;2022-07-22T03:03:48;3.93;;;2.63;;
2326;SDS011;1174;51.588;7.328;2022-07-22T03:06:15;5.70;;;3.83;;
2326;SDS011;1174;51.588;7.328;2022-07-22T03:08:42;3.37;;;2.73;;
2326;SDS011;1174;51.588;7.328;2022-07-22T03:11:09;5.20;;;2.53;;
2326;SDS011;1174;51.588;7.328;2022-07-22T03:13:36;5.07;;;3.17;;
2326;SDS011;1174;51.588;7.328;2022-07-22T03:16:03;2.80;;;1.50;;
2326;SDS011;1174;51.588;7.328;2022-07-22T03:18:31;6.90;;;2.40;;
2326;SDS011;1174;51.588;7.328;2022-07-22T03:20:59;7.77;;;2.30;;
2326;SDS011;1174;51.588;7.328;2022-07-22T03:23:26;7.40;;;3.17;;
2326;SDS011;1174;51.588;7.328;2022-07-22T03:25:54;3.67;;;2.40;;
2326;SDS011;1174;51.588;7.328;2022-07-22T03:28:21;4.70;;;3.23;;
2326;SDS011;1174;51.588;7.328;2022-07-22T03:30:48;6.90;;;2.57;;
2326;SDS011;1174;51.588;7.328;2022-07-22T03:33:15;4.37;;;2.70;;
2326;SDS011;1174;51.588;7.328;2022-07-22T03:35:42;3.43;;;2.60;;
2326;SDS011;1174;51.588;7.328;2022-07-22T03:38:10;2.63;;;2.07;;
2326;SDS011;1174;51.588;7.328;2022-07-22T03:40:37;4.30;;;1.83;;
2326;SDS011;1174;51.588;7.328;2022-07-22T03:43:04;5.67;;;3.00;;
2326;SDS011;1174;51.588;7.328;2022-07-22T03:45:31;3.07;;;1.80;;
2326;SDS011;1174;51.588;7.328;2022-07-22T03:47:57;2.50;;;2.13;;
2326;SDS011;1174;51.588;7.328;2022-07-22T03:50:24;2.93;;;2.23;;
2326;SDS011;1174;51.588;7.328;2022-07-22T03:52:51;3.00;;;1.70;;
2326;SDS011;1174;51.588;7.328;2022-07-22T03:55:20;5.33;;;2.87;;
2326;SDS011;1174;51.588;7.328;2022-07-22T03:57:47;5.43;;;2.03;;
2326;SDS011;1174;51.588;7.328;2022-07-22T04:00:14;4.77;;;2.50;;
2326;SDS011;1174;51.588;7.328;2022-07-22T04:02:41;3.17;;;2.20;;
2326;SDS011;1174;51.588;7.328;2022-07-22T04:05:08;10.93;;;2.53;;
2326;SDS011;1174;51.588;7.328;2022-07-22T04:07:35;4.90;;;2.07;;
2326;SDS011;1174;51.588;7.328;2022-07-22T04:10:02;2.90;;;2.43;;
2326;SDS011;1174;51.588;7.328;2022-07-22T04:12:36;3.03;;;2.13;;
2326;SDS011;1174;51.588;7.328;2022-07-22T04:15:05;5.30;;;2.20;;
2326;SDS011;1174;51.588;7.328;2022-07-22T04:17:35;4.80;;;2.63;;
2326;SDS011;1174;51.588;7.328;2022-07-22T04:20:02;8.40;;;2.63;;
2326;SDS011;1174;51.588;7.328;2022-07-22T04:22:30;2.93;;;2.03;;
2326;SDS011;1174;51.588;7.328;2022-07-22T04:24:57;3.03;;;2.37;;
2326;SDS011;1174;51.588;7.328;2022-07-22T04:27:24;6.00;;;2.10;;
2326;SDS011;1174;51.588;7.328;2022-07-22T04:29:53;5.83;;;2.13;;
2326;SDS011;1174;51.588;7.328;2022-07-22T04:32:21;6.33;;;2.90;;
2326;SDS011;1174;51.588;7.328;2022-07-22T04:34:49;4.53;;;2.27;;
2326;SDS011;1174;51.588;7.328;2022-07-22T04:37:16;4.77;;;1.80;;
2326;SDS011;1174;51.588;7.328;2022-07-22T04:39:42;3.90;;;2.20;;
2326;SDS011;1174;51.588;7.328;2022-07-22T04:42:09;3.53;;;2.10;;
2326;SDS011;1174;51.588;7.328;2022-07-22T04:44:36;9.07;;;2.87;;
2326;SDS011;1174;51.588;7.328;2022-07-22T04:47:05;6.43;;;2.37;;
2326;SDS011;1174;51.588;7.328;2022-07-22T04:49:31;3.40;;;1.97;;
2326;SDS011;1174;51.588;7.328;2022-07-22T04:51:58;4.23;;;2.63;;
2326;SDS011;1174;51.588;7.328;2022-07-22T04:54:25;5.50;;;2.50;;
2326;SDS011;1174;51.588;7.328;2022-07-22T04:56:52;5.53;;;2.10;;
2326;SDS011;1174;51.588;7.328;2022-07-22T04:59:19;7.60;;;3.90;;
2326;SDS011;1174;51.588;7.328;2022-07-22T05:01:46;7.37;;;3.37;;
2326;SDS011;1174;51.588;7.328;2022-07-22T05:04:14;3.73;;;2.47;;
2326;SDS011;1174;51.588;7.328;2022-07-22T05:06:41;3.60;;;2.57;;
2326;SDS011;1174;51.588;7.328;2022-07-22T05:09:07;6.07;;;3.20;;
2326;SDS011;1174;51.588;7.328;2022-07-22T05:11:34;4.40;;;2.40;;
2326;SDS011;1174;51.588;7.328;2022-07-22T05:14:01;4.83;;;2.87;;
2326;SDS011;1174;51.588;7.328;2022-07-22T05:16:28;4.00;;;3.40;;
2326;SDS011;1174;51.588;7.328;2022-07-22T05:18:55;5.57;;;2.47;;
2326;SDS011;1174;51.588;7.328;2022-07-22T05:21:23;4.20;;;2.70;;
2326;SDS011;1174;51.588;7.328;2022-07-22T05:23:50;3.93;;;2.87;;
2326;SDS011;1174;51.588;7.328;2022-07-22T05:26:17;13.87;;;3.23;;
2326;SDS011;1174;51.588;7.328;2022-07-22T05:28:43;5.33;;;2.67;;
2326;SDS011;1174;51.588;7.328;2022-07-22T05:31:10;6.07;;;3.37;;
2326;SDS011;1174;51.588;7.328;2022-07-22T05:33:37;8.03;;;2.43;;
2326;SDS011;1174;51.588;7.328;2022-07-22T05:36:04;3.77;;;2.83;;
2326;SDS011;1174;51.588;7.328;2022-07-22T05:38:35;7.00;;;2.80;;
2326;SDS011;1174;51.588;7.328;2022-07-22T05:41:02;4.30;;;2.50;;
2326;SDS011;1174;51.588;7.328;2022-07-22T05:43:29;8.60;;;2.40;;
2326;SDS011;1174;51.588;7.328;2022-07-22T05:45:56;7.50;;;2.73;;
2326;SDS011;1174;51.588;7.328;2022-07-22T05:48:23;6.00;;;2.27;;
2326;SDS011;1174;51.588;7.328;2022-07-22T05:50:50;4.63;;;2.67;;
2326;SDS011;1174;51.588;7.328;2022-07-22T05:53:16;5.60;;;2.33;;
2326;SDS011;1174;51.588;7.328;2022-07-22T05:55:45;10.30;;;2.40;;
2326;SDS011;1174;51.588;7.328;2022-07-22T05:58:12;4.70;;;3.00;;
2326;SDS011;1174;51.588;7.328;2022-07-22T06:00:39;4.90;;;2.37;;
2326;SDS011;1174;51.588;7.328;2022-07-22T06:03:06;5.00;;;2.70;;
2326;SDS011;1174;51.588;7.328;2022-07-22T06:05:33;5.67;;;2.40;;
2326;SDS011;1174;51.588;7.328;2022-07-22T06:08:00;6.83;;;2.43;;
2326;SDS011;1174;51.588;7.328;2022-07-22T06:10:27;3.13;;;2.10;;
2326;SDS011;1174;51.588;7.328;2022-07-22T06:12:56;4.50;;;2.57;;
2326;SDS011;1174;51.588;7.328;2022-07-22T06:15:23;4.20;;;2.40;;
2326;SDS011;1174;51.588;7.328;2022-07-22T06:17:50;6.30;;;2.43;;
2326;SDS011;1174;51.588;7.328;2022-07-22T06:20:17;3.57;;;2.20;;
2326;SDS011;1174;51.588;7.328;2022-07-22T06:22:44;2.10;;;1.83;;
2326;SDS011;1174;51.588;7.328;2022-07-22T06:25:11;3.63;;;2.50;;
2326;SDS011;1174;51.588;7.328;2022-07-22T06:27:38;2.43;;;2.23;;
2326;SDS011;1174;51.588;7.328;2022-07-22T06:30:06;8.57;;;1.80;;
2326;SDS011;1174;51.588;7.328;2022-07-22T06:32:34;1.93;;;1.40;;
2326;SDS011;1174;51.588;7.328;2022-07-22T06:35:01;2.73;;;1.67;;
2326;SDS011;1174;51.588;7.328;2022-07-22T06:37:28;8.93;;;3.20;;
2326;SDS011;1174;51.588;7.328;2022-07-22T06:39:55;3.00;;;1.73;;
2326;SDS011;1174;51.588;7.328;2022-07-22T06:42:22;4.10;;;1.60;;
2326;SDS011;1174;51.588;7.328;2022-07-22T06:44:50;5.00;;;1.50;;
2326;SDS011;1174;51.588;7.328;2022-07-22T06:47:18;2.87;;;1.63;;
2326;SDS011;1174;51.588;7.328;2022-07-22T06:49:45;2.23;;;1.40;;
2326;SDS011;1174;51.588;7.328;2022-07-22T06:52:12;2.00;;;1.73;;
2326;SDS011;1174;51.588;7.328;2022-07-22T06:54:39;3.77;;;1.87;;
2326;SDS011;1174;51.588;7.328;2022-07-22T06:57:05;7.00;;;1.97;;
2326;SDS011;1174;51.588;7.328;2022-07-22T06:59:32;2.20;;;2.00;;
2326;SDS011;1174;51.588;7.328;2022-07-22T07:01:59;2.63;;;1.43;;
2326;SDS011;1174;51.588;7.328;2022-07-22T07:04:27;3.07;;;2.00;;
2326;SDS011;1174;51.588;7.328;2022-07-22T07:06:54;5.77;;;1.67;;
2326;SDS011;1174;51.588;7.328;2022-07-22T07:09:21;2.37;;;1.40;;
2326;SDS011;1174;51.588;7.328;2022-07-22T07:11:48;1.60;;;1.40;;
2326;SDS011;1174;51.588;7.328;2022-07-22T07:14:15;3.17;;;1.40;;
2326;SDS011;1174;51.588;7.328;2022-07-22T07:16:42;2.33;;;1.60;;
2326;SDS011;1174;51.588;7.328;2022-07-22T07:19:09;1.77;;;1.43;;
2326;SDS011;1174;51.588;7.328;2022-07-22T07:21:37;5.00;;;1.77;;
2326;SDS011;1174;51.588;7.328;2022-07-22T07:24:04;1.97;;;1.50;;
2326;SDS011;1174;51.588;7.328;2022-07-22T07:26:31;4.30;;;1.23;;
2326;SDS011;1174;51.588;7.328;2022-07-22T07:28:58;2.57;;;1.37;;
2326;SDS011;1174;51.588;7.328;2022-07-22T07:31:28;6.57;;;6.07;;
2326;SDS011;1174;51.588;7.328;2022-07-22T07:33:55;2.10;;;1.63;;
2326;SDS011;1174;51.588;7.328;2022-07-22T07:36:22;2.00;;;1.63;;
2326;SDS011;1174;51.588;7.328;2022-07-22T07:38:50;5.30;;;1.67;;
2326;SDS011;1174;51.588;7.328;2022-07-22T07:41:17;3.27;;;1.60;;
2326;SDS011;1174;51.588;7.328;2022-07-22T07:43:44;2.70;;;1.40;;
2326;SDS011;1174;51.588;7.328;2022-07-22T07:46:11;2.63;;;1.60;;
2326;SDS011;1174;51.588;7.328;2022-07-22T07:48:38;2.70;;;1.50;;
2326;SDS011;1174;51.588;7.328;2022-07-22T07:51:05;2.23;;;1.33;;
2326;SDS011;1174;51.588;7.328;2022-07-22T07:53:32;1.60;;;1.30;;
2326;SDS011;1174;51.588;7.328;2022-07-22T07:56:00;5.63;;;1.90;;
2326;SDS011;1174;51.588;7.328;2022-07-22T07:58:27;5.70;;;2.10;;
2326;SDS011;1174;51.588;7.328;2022-07-22T08:00:54;2.53;;;1.83;;
2326;SDS011;1174;51.588;7.328;2022-07-22T08:03:21;7.87;;;1.67;;
2326;SDS011;1174;51.588;7.328;2022-07-22T08:05:48;2.63;;;1.57;;
2326;SDS011;1174;51.588;7.328;2022-07-22T08:08:15;7.10;;;1.83;;
2326;SDS011;1174;51.588;7.328;2022-07-22T08:10:42;1.70;;;1.60;;
2326;SDS011;1174;51.588;7.328;2022-07-22T08:13:11;2.83;;;1.73;;
2326;SDS011;1174;51.588;7.328;2022-07-22T08:15:38;1.80;;;1.40;;
2326;SDS011;1174;51.588;7.328;2022-07-22T08:18:05;3.00;;;2.03;;
2326;SDS011;1174;51.588;7.328;2022-07-22T08:20:31;2.30;;;1.70;;
2326;SDS011;1174;51.588;7.328;2022-07-22T08:22:59;3.70;;;2.10;;
2326;SDS011;1174;51.588;7.328;2022-07-22T08:25:26;2.70;;;2.13;;
2326;SDS011;1174;51.588;7.328;2022-07-22T08:27:53;3.70;;;1.97;;
2326;SDS011;1174;51.588;7.328;2022-07-22T08:30:21;2.80;;;1.50;;
2326;SDS011;1174;51.588;7.328;2022-07-22T08:32:52;7.33;;;2.57;;
2326;SDS011;1174;51.588;7.328;2022-07-22T08:35:19;2.90;;;1.80;;
2326;SDS011;1174;51.588;7.328;2022-07-22T08:37:46;2.30;;;1.70;;
2326;SDS011;1174;51.588;7.328;2022-07-22T08:40:14;3.10;;;1.87;;
2326;SDS011;1174;51.588;7.328;2022-07-22T08:42:43;2.67;;;2.20;;
2326;SDS011;1174;51.588;7.328;2022-07-22T08:45:12;2.53;;;2.20;;
2326;SDS011;1174;51.588;7.328;2022-07-22T08:47:40;3.60;;;2.10;;
2326;SDS011;1174;51.588;7.328;2022-07-22T08:50:10;3.37;;;2.50;;
2326;SDS011;1174;51.588;7.328;2022-07-22T08:52:37;3.53;;;2.50;;
2326;SDS011;1174;51.588;7.328;2022-07-22T08:55:05;5.30;;;2.80;;
2326;SDS011;1174;51.588;7.328;2022-07-22T08:57:33;4.37;;;2.50;;
2326;SDS011;1174;51.588;7.328;2022-07-22T09:00:03;9.90;;;3.90;;
2326;SDS011;1174;51.588;7.328;2022-07-22T09:02:35;4.50;;;3.33;;
2326;SDS011;1174;51.588;7.328;2022-07-22T09:05:06;10.83;;;3.50;;
2326;SDS011;1174;51.588;7.328;2022-07-22T09:07:34;10.00;;;5.17;;
2326;SDS011;1174;51.588;7.328;2022-07-22T09:10:03;10.50;;;6.80;;
2326;SDS011;1174;51.588;7.328;2022-07-22T09:12:31;10.87;;;7.27;;
2326;SDS011;1174;51.588;7.328;2022-07-22T09:14:59;8.67;;;5.47;;
2326;SDS011;1174;51.588;7.328;2022-07-22T09:17:29;9.50;;;5.53;;
2326;SDS011;1174;51.588;7.328;2022-07-22T09:20:00;8.97;;;5.23;;
2326;SDS011;1174;51.588;7.328;2022-07-22T09:22:35;10.10;;;5.70;;
2326;SDS011;1174;51.588;7.328;2022-07-22T09:25:19;10.27;;;5.60;;
2326;SDS011;1174;51.588;7.328;2022-07-22T09:27:49;7.40;;;4.70;;
2326;SDS011;1174;51.588;7.328;2022-07-22T09:30:17;5.50;;;4.00;;
2326;SDS011;1174;51.588;7.328;2022-07-22T09:32:46;5.47;;;3.63;;
2326;SDS011;1174;51.588;7.328;2022-07-22T09:35:14;3.87;;;2.73;;
2326;SDS011;1174;51.588;7.328;2022-07-22T09:37:49;4.27;;;2.70;;
2326;SDS011;1174;51.588;7.328;2022-07-22T09:40:18;4.27;;;3.00;;
2326;SDS011;1174;51.588;7.328;2022-07-22T09:42:47;10.33;;;3.37;;
2326;SDS011;1174;51.588;7.328;2022-07-22T09:45:16;3.70;;;2.67;;
2326;SDS011;1174;51.588;7.328;2022-07-22T09:47:44;4.23;;;2.53;;
2326;SDS011;1174;51.588;7.328;2022-07-22T09:50:15;4.40;;;3.10;;
2326;SDS011;1174;51.588;7.328;2022-07-22T09:52:44;5.00;;;2.90;;
2326;SDS011;1174;51.588;7.328;2022-07-22T09:55:14;4.83;;;3.03;;
2326;SDS011;1174;51.588;7.328;2022-07-22T09:57:43;2.60;;;2.27;;
2326;SDS011;1174;51.588;7.328;2022-07-22T10:00:10;6.40;;;2.90;;
2326;SDS011;1174;51.588;7.328;2022-07-22T10:02:40;5.93;;;3.20;;
2326;SDS011;1174;51.588;7.328;2022-07-22T10:05:10;4.97;;;2.97;;
2326;SDS011;1174;51.588;7.328;2022-07-22T10:07:39;5.10;;;2.93;;
2326;SDS011;1174;51.588;7.328;2022-07-22T10:10:07;3.00;;;2.20;;
2326;SDS011;1174;51.588;7.328;2022-07-22T10:12:40;3.73;;;2.37;;
2326;SDS011;1174;51.588;7.328;2022-07-22T10:15:08;5.40;;;3.33;;
2326;SDS011;1174;51.588;7.328;2022-07-22T10:17:36;9.20;;;5.03;;
2326;SDS011;1174;51.588;7.328;2022-07-22T10:20:05;5.77;;;2.80;;
2326;SDS011;1174;51.588;7.328;2022-07-22T10:22:46;5.20;;;2.93;;
2326;SDS011;1174;51.588;7.328;2022-07-22T10:25:20;3.03;;;2.73;;
2326;SDS011;1174;51.588;7.328;2022-07-22T10:27:51;4.17;;;3.13;;
2326;SDS011;1174;51.588;7.328;2022-07-22T10:30:20;7.43;;;4.40;;
2326;SDS011;1174;51.588;7.328;2022-07-22T10:33:08;7.47;;;4.60;;
2326;SDS011;1174;51.588;7.328;2022-07-22T10:35:37;12.10;;;5.10;;
2326;SDS011;1174;51.588;7.328;2022-07-22T10:38:16;7.37;;;3.87;;
2326;SDS011;1174;51.588;7.328;2022-07-22T10:40:51;5.87;;;4.40;;
2326;SDS011;1174;51.588;7.328;2022-07-22T10:43:22;4.23;;;3.03;;
2326;SDS011;1174;51.588;7.328;2022-07-22T10:45:51;5.97;;;3.43;;
2326;SDS011;1174;51.588;7.328;2022-07-22T10:48:20;7.23;;;4.17;;
2326;SDS011;1174;51.588;7.328;2022-07-22T10:53:47;5.17;;;3.93;;
2326;SDS011;1174;51.588;7.328;2022-07-22T10:56:23;7.60;;;4.90;;
2326;SDS011;1174;51.588;7.328;2022-07-22T10:58:53;5.43;;;3.37;;
2326;SDS011;1174;51.588;7.328;2022-07-22T11:01:23;11.73;;;4.40;;
2326;SDS011;1174;51.588;7.328;2022-07-22T11:03:55;6.83;;;4.63;;
2326;SDS011;1174;51.588;7.328;2022-07-22T11:06:32;5.83;;;4.97;;
2326;SDS011;1174;51.588;7.328;2022-07-22T11:09:01;8.10;;;5.00;;
2326;SDS011;1174;51.588;7.328;2022-07-22T11:11:34;5.83;;;4.63;;
2326;SDS011;1174;51.588;7.328;2022-07-22T11:14:11;4.70;;;4.03;;
2326;SDS011;1174;51.588;7.328;2022-07-22T11:16:44;7.50;;;4.97;;
2326;SDS011;1174;51.588;7.328;2022-07-22T11:19:12;7.83;;;4.90;;
2326;SDS011;1174;51.588;7.328;2022-07-22T11:21:39;6.93;;;4.70;;
2326;SDS011;1174;51.588;7.328;2022-07-22T11:24:06;9.80;;;5.90;;
2326;SDS011;1174;51.588;7.328;2022-07-22T11:26:39;9.53;;;6.63;;
2326;SDS011;1174;51.588;7.328;2022-07-22T11:29:08;5.67;;;5.17;;
2326;SDS011;1174;51.588;7.328;2022-07-22T11:31:37;9.27;;;5.70;;
2326;SDS011;1174;51.588;7.328;2022-07-22T11:34:08;7.90;;;5.70;;
2326;SDS011;1174;51.588;7.328;2022-07-22T11:36:38;8.00;;;5.80;;
2326;SDS011;1174;51.588;7.328;2022-07-22T11:39:07;9.33;;;5.33;;
2326;SDS011;1174;51.588;7.328;2022-07-22T11:41:35;9.30;;;5.80;;
2326;SDS011;1174;51.588;7.328;2022-07-22T11:44:02;8.83;;;6.20;;
2326;SDS011;1174;51.588;7.328;2022-07-22T11:46:34;8.70;;;6.17;;
2326;SDS011;1174;51.588;7.328;2022-07-22T11:49:05;13.47;;;5.70;;
2326;SDS011;1174;51.588;7.328;2022-07-22T11:51:33;10.50;;;5.90;;
2326;SDS011;1174;51.588;7.328;2022-07-22T11:54:01;12.27;;;6.60;;
2326;SDS011;1174;51.588;7.328;2022-07-22T11:56:28;12.70;;;6.20;;
2326;SDS011;1174;51.588;7.328;2022-07-22T11:58:55;8.60;;;7.33;;
2326;SDS011;1174;51.588;7.328;2022-07-22T12:01:23;10.93;;;7.50;;
2326;SDS011;1174;51.588;7.328;2022-07-22T12:03:52;8.37;;;6.67;;
2326;SDS011;1174;51.588;7.328;2022-07-22T12:06:21;8.07;;;6.70;;
2326;SDS011;1174;51.588;7.328;2022-07-22T12:08:50;11.80;;;7.13;;
2326;SDS011;1174;51.588;7.328;2022-07-22T12:11:19;11.80;;;8.10;;
2326;SDS011;1174;51.588;7.328;2022-07-22T12:13:50;11.90;;;6.93;;
2326;SDS011;1174;51.588;7.328;2022-07-22T12:16:19;14.23;;;9.57;;
2326;SDS011;1174;51.588;7.328;2022-07-22T12:18:52;11.53;;;7.87;;
2326;SDS011;1174;51.588;7.328;2022-07-22T12:21:24;9.07;;;7.13;;
2326;SDS011;1174;51.588;7.328;2022-07-22T12:23:52;10.00;;;7.20;;
2326;SDS011;1174;51.588;7.328;2022-07-22T12:26:41;12.10;;;7.70;;
2326;SDS011;1174;51.588;7.328;2022-07-22T12:29:14;11.10;;;7.87;;
2326;SDS011;1174;51.588;7.328;2022-07-22T12:31:42;16.73;;;8.50;;
2326;SDS011;1174;51.588;7.328;2022-07-22T12:34:10;11.70;;;7.07;;
2326;SDS011;1174;51.588;7.328;2022-07-22T12:36:38;13.07;;;7.40;;
2326;SDS011;1174;51.588;7.328;2022-07-22T12:39:10;10.97;;;7.43;;
2326;SDS011;1174;51.588;7.328;2022-07-22T12:41:46;10.63;;;7.70;;
2326;SDS011;1174;51.588;7.328;2022-07-22T12:44:15;10.10;;;7.20;;
2326;SDS011;1174;51.588;7.328;2022-07-22T12:46:44;9.70;;;6.30;;
2326;SDS011;1174;51.588;7.328;2022-07-22T12:49:11;9.50;;;7.50;;
2326;SDS011;1174;51.588;7.328;2022-07-22T12:51:40;11.40;;;7.43;;
2326;SDS011;1174;51.588;7.328;2022-07-22T12:54:06;13.07;;;8.03;;
2326;SDS011;1174;51.588;7.328;2022-07-22T12:56:33;12.17;;;8.70;;
2326;SDS011;1174;51.588;7.328;2022-07-22T12:59:00;12.37;;;8.23;;
2326;SDS011;1174;51.588;7.328;2022-07-22T13:01:27;12.73;;;8.83;;
2326;SDS011;1174;51.588;7.328;2022-07-22T13:03:54;11.97;;;6.20;;
2326;SDS011;1174;51.588;7.328;2022-07-22T13:06:21;16.07;;;8.40;;
2326;SDS011;1174;51.588;7.328;2022-07-22T13:08:49;10.40;;;7.37;;
2326;SDS011;1174;51.588;7.328;2022-07-22T13:11:16;14.63;;;8.43;;
2326;SDS011;1174;51.588;7.328;2022-07-22T13:13:44;12.10;;;8.93;;
2326;SDS011;1174;51.588;7.328;2022-07-22T13:16:12;10.50;;;8.80;;
2326;SDS011;1174;51.588;7.328;2022-07-22T13:18:39;12.93;;;8.20;;
2326;SDS011;1174;51.588;7.328;2022-07-22T13:21:06;9.83;;;8.03;;
2326;SDS011;1174;51.588;7.328;2022-07-22T13:23:33;8.20;;;6.67;;
2326;SDS011;1174;51.588;7.328;2022-07-22T13:26:01;12.50;;;7.50;;
2326;SDS011;1174;51.588;7.328;2022-07-22T13:28:28;11.23;;;8.00;;
2326;SDS011;1174;51.588;7.328;2022-07-22T13:30:55;10.87;;;8.33;;
2326;SDS011;1174;51.588;7.328;2022-07-22T13:33:22;11.30;;;7.43;;
2326;SDS011;1174;51.588;7.328;2022-07-22T13:35:49;12.63;;;7.43;;
2326;SDS011;1174;51.588;7.328;2022-07-22T13:38:16;10.60;;;7.50;;
2326;SDS011;1174;51.588;7.328;2022-07-22T13:40:43;9.33;;;8.23;;
2326;SDS011;1174;51.588;7.328;2022-07-22T13:43:17;9.77;;;8.23;;
2326;SDS011;1174;51.588;7.328;2022-07-22T13:45:44;13.40;;;8.20;;
2326;SDS011;1174;51.588;7.328;2022-07-22T13:48:11;12.03;;;7.77;;
2326;SDS011;1174;51.588;7.328;2022-07-22T13:50:38;10.30;;;7.90;;
2326;SDS011;1174;51.588;7.328;2022-07-22T13:53:05;10.90;;;7.07;;
2326;SDS011;1174;51.588;7.328;2022-07-22T13:55:32;10.90;;;9.23;;
2326;SDS011;1174;51.588;7.328;2022-07-22T13:57:59;12.83;;;7.70;;
2326;SDS011;1174;51.588;7.328;2022-07-22T14:00:27;9.27;;;7.73;;
2326;SDS011;1174;51.588;7.328;2022-07-22T14:02:54;11.00;;;8.50;;
2326;SDS011;1174;51.588;7.328;2022-07-22T14:05:21;9.37;;;7.13;;
2326;SDS011;1174;51.588;7.328;2022-07-22T14:07:48;8.53;;;6.47;;
2326;SDS011;1174;51.588;7.328;2022-07-22T14:10:15;10.50;;;7.20;;
2326;SDS011;1174;51.588;7.328;2022-07-22T14:12:42;10.67;;;8.13;;
2326;SDS011;1174;51.588;7.328;2022-07-22T14:15:12;13.40;;;6.77;;
2326;SDS011;1174;51.588;7.328;2022-07-22T14:17:41;8.83;;;7.13;;
2326;SDS011;1174;51.588;7.328;2022-07-22T14:20:08;9.30;;;7.30;;
2326;SDS011;1174;51.588;7.328;2022-07-22T14:22:36;9.40;;;8.13;;
2326;SDS011;1174;51.588;7.328;2022-07-22T14:25:04;8.23;;;7.00;;
2326;SDS011;1174;51.588;7.328;2022-07-22T14:27:31;9.17;;;6.93;;
2326;SDS011;1174;51.588;7.328;2022-07-22T14:29:58;12.27;;;7.40;;
2326;SDS011;1174;51.588;7.328;2022-07-22T14:32:25;12.70;;;7.97;;
2326;SDS011;1174;51.588;7.328;2022-07-22T14:34:53;10.20;;;8.07;;
2326;SDS011;1174;51.588;7.328;2022-07-22T14:37:20;10.10;;;8.40;;
2326;SDS011;1174;51.588;7.328;2022-07-22T14:39:47;10.50;;;7.20;;
2326;SDS011;1174;51.588;7.328;2022-07-22T14:42:14;10.67;;;7.50;;
2326;SDS011;1174;51.588;7.328;2022-07-22T14:44:41;10.63;;;7.60;;
2326;SDS011;1174;51.588;7.328;2022-07-22T14:47:07;10.07;;;7.80;;
2326;SDS011;1174;51.588;7.328;2022-07-22T14:49:34;10.93;;;8.30;;
2326;SDS011;1174;51.588;7.328;2022-07-22T14:52:02;7.97;;;6.20;;
2326;SDS011;1174;51.588;7.328;2022-07-22T14:54:29;8.30;;;7.40;;
2326;SDS011;1174;51.588;7.328;2022-07-22T14:56:56;10.10;;;8.60;;
2326;SDS011;1174;51.588;7.328;2022-07-22T14:59:24;9.73;;;8.03;;
2326;SDS011;1174;51.588;7.328;2022-07-22T15:01:51;11.30;;;8.30;;
2326;SDS011;1174;51.588;7.328;2022-07-22T15:04:18;11.00;;;7.90;;
2326;SDS011;1174;51.588;7.328;2022-07-22T15:06:45;9.37;;;7.77;;
2326;SDS011;1174;51.588;7.328;2022-07-22T15:09:13;11.60;;;6.60;;
2326;SDS011;1174;51.588;7.328;2022-07-22T15:11:40;12.00;;;8.53;;
2326;SDS011;1174;51.588;7.328;2022-07-22T15:14:07;8.40;;;7.40;;
2326;SDS011;1174;51.588;7.328;2022-07-22T15:16:34;7.53;;;6.63;;
2326;SDS011;1174;51.588;7.328;2022-07-22T15:19:01;7.83;;;5.93;;
2326;SDS011;1174;51.588;7.328;2022-07-22T15:21:27;8.23;;;6.90;;